createdAt,value
2022-08-06T00:00:03.085Z,80.62
2022-08-06T00:02:28.438Z,79.94
2022-08-06T00:05:01.451Z,79.12
2022-08-06T00:07:45.061Z,79.50
2022-08-06T00:10:18.598Z,80.29
2022-08-06T00:12:48.225Z,80.28
2022-08-06T00:15:20.043Z,80.81
2022-08-06T00:18:06.348Z,79.96
2022-08-06T00:20:33.398Z,82.06
2022-08-06T00:23:16.363Z,81.33
2022-08-06T00:25:52.590Z,81.62
2022-08-06T00:28:30.949Z,81.72
2022-08-06T00:31:06.238Z,81.32
2022-08-06T00:33:44.441Z,81.85
2022-08-06T00:36:28.363Z,81.49
2022-08-06T00:39:00.669Z,80.85
2022-08-06T00:41:42.076Z,80.88
2022-08-06T00:44:14.493Z,80.98
2022-08-06T00:46:42.813Z,81.15
2022-08-06T00:49:12.051Z,81.28
2022-08-06T00:51:50.242Z,81.67
2022-08-06T00:54:27.445Z,80.67
2022-08-06T00:57:06.839Z,80.71
2022-08-06T00:59:37.222Z,80.04
2022-08-06T01:02:04.851Z,80.04
2022-08-06T01:04:37.325Z,79.63
2022-08-06T01:07:05.487Z,79.59
2022-08-06T01:09:57.171Z,79.11
2022-08-06T01:12:31.829Z,79.75
2022-08-06T01:15:02.624Z,80.30
2022-08-06T01:17:42.579Z,79.90
2022-08-06T01:21:59.355Z,80.27
2022-08-06T01:23:53.650Z,80.89
2022-08-06T01:26:38.813Z,80.04
2022-08-06T01:29:34.727Z,79.71
2022-08-06T01:32:14.376Z,81.30
2022-08-06T01:34:56.196Z,82.20
2022-08-06T01:37:38.305Z,81.75
2022-08-06T01:40:13.377Z,81.70
2022-08-06T01:42:44.406Z,81.76
2022-08-06T01:45:42.313Z,81.69
2022-08-06T01:48:28.648Z,81.06
2022-08-06T01:51:02.495Z,80.98
2022-08-06T01:53:56.760Z,80.81
2022-08-06T01:56:33.949Z,80.55
2022-08-06T01:59:21.439Z,80.79
2022-08-06T02:01:55.314Z,80.56
2022-08-06T02:04:27.689Z,81.03
2022-08-06T02:06:56.859Z,80.94
2022-08-06T02:09:33.649Z,80.81
2022-08-06T02:12:25.153Z,81.38
2022-08-06T02:14:57.208Z,81.40
2022-08-06T02:17:53.932Z,81.21
2022-08-06T02:20:37.340Z,81.34
2022-08-06T02:23:09.483Z,81.94
2022-08-06T02:25:42.609Z,81.51
2022-08-06T02:28:21.353Z,81.55
2022-08-06T02:30:56.736Z,82.80
2022-08-06T02:33:32.494Z,82.50
2022-08-06T02:36:26.630Z,82.52
2022-08-06T02:39:04.853Z,82.65
2022-08-06T02:42:05.188Z,82.60
2022-08-06T02:45:04.271Z,82.59
2022-08-06T02:48:22.299Z,82.40
2022-08-06T02:51:43.252Z,82.09
2022-08-06T02:54:18.950Z,82.69
2022-08-06T02:56:48.352Z,82.77
2022-08-06T02:59:22.590Z,82.69
2022-08-06T03:01:59.363Z,82.69
2022-08-06T03:04:32.604Z,82.72
2022-08-06T03:07:27.535Z,83.20
2022-08-06T03:09:58.886Z,83.12
2022-08-06T03:12:39.213Z,82.79
2022-08-06T03:15:13.756Z,82.40
2022-08-06T03:17:45.589Z,82.58
2022-08-06T03:20:17.746Z,81.96
2022-08-06T03:22:48.609Z,81.85
2022-08-06T03:25:17.761Z,82.02
2022-08-06T03:27:46.354Z,82.73
2022-08-06T03:30:31.543Z,82.06
2022-08-06T03:33:07.553Z,82.09
2022-08-06T03:35:51.814Z,82.10
2022-08-06T03:38:28.766Z,81.83
2022-08-06T03:40:58.455Z,81.95
2022-08-06T03:43:27.363Z,81.38
2022-08-06T03:46:02.178Z,81.55
2022-08-06T03:48:38.746Z,81.52
2022-08-06T03:51:12.999Z,80.85
2022-08-06T03:53:46.902Z,81.12
2022-08-06T03:56:28.926Z,81.09
2022-08-06T03:59:04.544Z,80.85
2022-08-06T04:01:43.049Z,80.57
2022-08-06T04:04:27.061Z,80.29
2022-08-06T04:07:00.446Z,80.38
2022-08-06T04:09:33.335Z,81.19
2022-08-06T04:12:58.861Z,80.78
2022-08-06T04:15:09.202Z,80.69
2022-08-06T04:17:40.990Z,80.85
2022-08-06T04:20:17.475Z,81.10
2022-08-06T04:23:09.745Z,81.02
2022-08-06T04:25:49.366Z,81.21
2022-08-06T04:28:18.747Z,80.33
2022-08-06T04:30:50.399Z,80.72
2022-08-06T04:33:21.541Z,79.91
2022-08-06T04:36:23.970Z,80.14
2022-08-06T04:38:52.212Z,79.69
2022-08-06T04:41:20.214Z,79.24
2022-08-06T04:43:52.225Z,79.55
2022-08-06T04:46:21.922Z,79.23
2022-08-06T04:48:53.761Z,78.99
2022-08-06T04:52:36.816Z,78.65
2022-08-06T04:54:14.488Z,79.39
2022-08-06T04:56:50.066Z,79.26
2022-08-06T04:59:18.283Z,79.42
2022-08-06T05:01:57.075Z,79.06
2022-08-06T05:04:32.412Z,79.22
2022-08-06T05:07:22.856Z,79.06
2022-08-06T05:09:54.223Z,78.85
2022-08-06T05:12:40.345Z,78.99
2022-08-06T05:15:41.833Z,78.60
2022-08-06T05:19:21.121Z,78.82
2022-08-06T05:22:06.060Z,78.24
2022-08-06T05:24:15.917Z,77.52
2022-08-06T05:26:43.493Z,77.31
2022-08-06T05:29:11.973Z,76.73
2022-08-06T05:31:46.250Z,76.88
2022-08-06T05:34:14.832Z,77.03
2022-08-06T05:36:42.114Z,76.57
2022-08-06T05:39:10.834Z,76.58
2022-08-06T05:41:59.789Z,77.22
2022-08-06T05:44:29.613Z,76.76
2022-08-06T05:47:04.993Z,77.30
2022-08-06T05:49:58.639Z,76.54
2022-08-06T05:52:48.453Z,76.17
2022-08-06T05:55:38.602Z,76.86
2022-08-06T05:58:15.989Z,76.56
2022-08-06T06:00:46.660Z,76.53
2022-08-06T06:03:24.990Z,76.18
2022-08-06T06:06:15.954Z,76.86
2022-08-06T06:08:57.840Z,76.95
2022-08-06T06:11:54.847Z,76.33
2022-08-06T06:14:38.752Z,76.41
2022-08-06T06:17:39.549Z,76.46
2022-08-06T06:21:03.704Z,77.27
2022-08-06T06:23:55.539Z,77.29
2022-08-06T06:26:45.821Z,77.45
2022-08-06T06:30:06.028Z,77.24
2022-08-06T06:32:41.223Z,77.21
2022-08-06T06:35:36.905Z,76.67
2022-08-06T06:38:31.547Z,77.00
2022-08-06T06:41:19.822Z,76.98
2022-08-06T06:44:03.849Z,77.27
2022-08-06T06:46:47.971Z,76.33
2022-08-06T06:50:00.524Z,75.99
2022-08-06T06:52:41.108Z,76.42
2022-08-06T06:55:52.246Z,76.23
2022-08-06T06:58:33.733Z,76.25
2022-08-06T07:01:11.852Z,76.36
2022-08-06T07:03:50.953Z,76.19
2022-08-06T07:06:30.892Z,75.50
2022-08-06T07:09:15.226Z,75.31
2022-08-06T07:12:02.350Z,75.08
2022-08-06T07:14:34.460Z,76.15
2022-08-06T07:17:59.547Z,75.58
2022-08-06T07:19:55.384Z,75.01
2022-08-06T07:22:26.139Z,74.73
2022-08-06T07:25:02.212Z,75.04
2022-08-06T07:27:55.630Z,74.19
2022-08-06T07:30:25.875Z,74.87
2022-08-06T07:32:53.327Z,74.62
2022-08-06T07:35:21.673Z,75.01
2022-08-06T07:37:58.170Z,74.57
2022-08-06T07:40:33.039Z,74.30
2022-08-06T07:43:34.992Z,74.01
2022-08-06T07:46:07.512Z,74.31
2022-08-06T07:48:52.365Z,73.59
2022-08-06T07:51:34.368Z,73.92
2022-08-06T07:54:06.844Z,73.16
2022-08-06T07:56:39.504Z,73.98
2022-08-06T07:59:11.929Z,73.17
2022-08-06T08:01:49.724Z,73.14
2022-08-06T08:04:51.760Z,73.21
2022-08-06T08:07:37.838Z,73.66
2022-08-06T08:10:10.434Z,73.36
2022-08-06T08:12:38.370Z,72.74
2022-08-06T08:15:18.261Z,72.93
2022-08-06T08:17:56.591Z,73.11
2022-08-06T08:20:33.640Z,73.66
2022-08-06T08:23:04.327Z,72.64
2022-08-06T08:25:40.293Z,72.68
2022-08-06T08:28:11.057Z,72.65
2022-08-06T08:30:40.938Z,72.48
2022-08-06T08:33:11.134Z,72.18
2022-08-06T08:35:39.177Z,71.09
2022-08-06T08:38:15.961Z,70.00
2022-08-06T08:40:46.214Z,69.50
2022-08-06T08:43:24.355Z,69.40
2022-08-06T08:46:12.368Z,69.39
2022-08-06T08:48:39.851Z,68.11
2022-08-06T08:51:13.776Z,66.40
2022-08-06T08:53:58.507Z,67.15
2022-08-06T08:57:11.645Z,66.16
2022-08-06T08:59:59.740Z,66.49
2022-08-06T09:02:01.438Z,66.52
2022-08-06T09:04:29.220Z,64.93
2022-08-06T09:06:56.993Z,64.85
2022-08-06T09:09:30.048Z,64.42
2022-08-06T09:12:04.434Z,65.07
2022-08-06T09:14:47.353Z,65.51
2022-08-06T09:17:18.105Z,65.08
2022-08-06T09:20:02.347Z,65.48
2022-08-06T09:22:29.353Z,65.66
2022-08-06T09:24:56.341Z,66.23
2022-08-06T09:27:47.370Z,65.94
2022-08-06T09:30:25.889Z,65.09
2022-08-06T09:33:03.673Z,64.82
2022-08-06T09:35:44.689Z,63.94
2022-08-06T09:38:16.445Z,64.09
2022-08-06T09:41:15.535Z,63.74
2022-08-06T09:44:03.020Z,62.06
2022-08-06T09:46:48.934Z,61.44
2022-08-06T09:49:48.598Z,61.48
2022-08-06T09:52:14.789Z,59.93
2022-08-06T09:54:44.782Z,60.08
2022-08-06T09:57:15.245Z,60.75
2022-08-06T09:59:50.227Z,60.77
2022-08-06T10:02:23.795Z,60.83
2022-08-06T10:05:17.773Z,60.16
2022-08-06T10:08:08.107Z,60.32
2022-08-06T10:10:51.355Z,59.03
2022-08-06T10:13:24.552Z,59.67
2022-08-06T10:16:01.535Z,59.70
2022-08-06T10:18:54.831Z,59.45
2022-08-06T10:21:41.013Z,60.30
2022-08-06T10:24:11.661Z,61.13
2022-08-06T10:26:43.574Z,61.98
2022-08-06T10:29:12.255Z,60.75
2022-08-06T10:31:42.629Z,61.37
2022-08-06T10:34:31.220Z,61.94
2022-08-06T10:37:11.012Z,62.08
2022-08-06T10:40:09.163Z,62.71
2022-08-06T10:42:40.035Z,62.14
2022-08-06T10:45:13.152Z,61.46
2022-08-06T10:48:57.901Z,61.76
2022-08-06T10:50:44.302Z,61.50
2022-08-06T10:53:59.512Z,61.43
2022-08-06T10:56:10.180Z,60.81
2022-08-06T10:58:41.031Z,59.94
2022-08-06T11:01:14.201Z,58.94
2022-08-06T11:03:46.981Z,58.29
2022-08-06T11:06:53.364Z,58.67
2022-08-06T11:10:02.017Z,57.24
2022-08-06T11:12:57.839Z,55.92
2022-08-06T11:15:25.016Z,56.80
2022-08-06T11:18:12.396Z,54.18
2022-08-06T11:20:45.718Z,56.16
2022-08-06T11:23:29.535Z,55.37
2022-08-06T11:26:04.898Z,55.34
2022-08-06T11:28:34.978Z,54.68
2022-08-06T11:31:05.305Z,55.38
2022-08-06T11:33:38.671Z,55.88
2022-08-06T11:36:10.607Z,54.32
2022-08-06T11:38:50.519Z,54.34
2022-08-06T11:41:54.688Z,54.79
2022-08-06T11:44:27.539Z,53.78
2022-08-06T11:47:22.663Z,55.20
2022-08-06T11:50:02.018Z,55.16
2022-08-06T11:52:39.235Z,54.50
2022-08-06T11:55:23.125Z,55.44
2022-08-06T11:58:18.982Z,55.17
2022-08-06T12:01:03.586Z,55.98
2022-08-06T12:03:52.271Z,56.79
2022-08-06T12:06:26.246Z,56.21
2022-08-06T12:09:16.042Z,56.79
2022-08-06T12:11:51.580Z,56.12
2022-08-06T12:14:49.830Z,55.32
2022-08-06T12:17:44.817Z,55.27
2022-08-06T12:20:13.308Z,56.82
2022-08-06T12:23:01.090Z,57.05
2022-08-06T12:25:42.812Z,56.88
2022-08-06T12:28:18.883Z,57.76
2022-08-06T12:30:53.421Z,55.20
2022-08-06T12:33:24.626Z,56.01
2022-08-06T12:35:59.725Z,55.50
2022-08-06T12:38:32.670Z,56.33
2022-08-06T12:41:00.851Z,56.37
2022-08-06T12:43:46.087Z,57.53
2022-08-06T12:46:19.369Z,56.17
2022-08-06T12:48:51.195Z,55.33
2022-08-06T12:51:19.420Z,55.33
2022-08-06T12:54:03.170Z,55.13
2022-08-06T12:56:37.521Z,54.64
2022-08-06T12:59:15.971Z,52.73
2022-08-06T13:02:11.783Z,53.50
2022-08-06T13:04:44.754Z,53.10
2022-08-06T13:07:15.034Z,50.77
2022-08-06T13:10:02.170Z,52.62
2022-08-06T13:14:02.876Z,51.81
2022-08-06T13:15:22.434Z,53.23
2022-08-06T13:18:30.186Z,51.30
2022-08-06T13:20:59.024Z,51.38
2022-08-06T13:23:39.152Z,50.89
2022-08-06T13:26:26.515Z,51.03
2022-08-06T13:30:31.296Z,49.76
2022-08-06T13:32:28.213Z,48.55
2022-08-06T13:35:17.112Z,49.11
2022-08-06T13:37:56.527Z,50.81
2022-08-06T13:41:03.295Z,47.21
2022-08-06T13:43:44.988Z,45.58
2022-08-06T13:46:29.713Z,45.55
2022-08-06T13:49:02.682Z,45.16
2022-08-06T13:51:34.424Z,45.35
2022-08-06T13:54:15.651Z,45.21
2022-08-06T13:56:48.670Z,46.09
2022-08-06T13:59:21.503Z,45.20
2022-08-06T14:01:49.913Z,45.71
2022-08-06T14:04:25.713Z,45.57
2022-08-06T14:06:59.537Z,47.03
2022-08-06T14:09:58.469Z,47.79
2022-08-06T14:12:18.375Z,48.31
2022-08-06T14:14:47.859Z,49.41
2022-08-06T14:17:15.430Z,46.78
2022-08-06T14:20:10.257Z,46.44
2022-08-06T14:22:36.785Z,44.94
2022-08-06T14:25:05.162Z,44.28
2022-08-06T14:27:43.659Z,44.14
2022-08-06T14:30:26.203Z,43.35
2022-08-06T14:33:11.133Z,44.81
2022-08-06T14:35:51.602Z,43.29
2022-08-06T14:38:20.859Z,45.66
2022-08-06T14:41:10.061Z,44.00
2022-08-06T14:43:57.808Z,42.73
2022-08-06T14:46:31.207Z,40.76
2022-08-06T14:49:05.590Z,42.21
2022-08-06T14:51:37.866Z,42.17
2022-08-06T14:54:31.511Z,43.24
2022-08-06T14:57:15.321Z,41.73
2022-08-06T14:59:48.134Z,41.37
2022-08-06T15:02:15.505Z,43.30
2022-08-06T15:04:42.429Z,45.05
2022-08-06T15:07:24.600Z,45.07
2022-08-06T15:10:05.033Z,45.04
2022-08-06T15:12:43.090Z,44.51
2022-08-06T15:15:18.404Z,45.25
2022-08-06T15:18:11.144Z,45.21
2022-08-06T15:20:38.221Z,45.28
2022-08-06T15:23:05.722Z,46.15
2022-08-06T15:26:00.237Z,46.31
2022-08-06T15:28:19.962Z,46.21
2022-08-06T15:30:47.337Z,45.57
2022-08-06T15:33:15.629Z,45.66
2022-08-06T15:35:57.856Z,45.80
2022-08-06T15:38:32.524Z,46.88
2022-08-06T15:41:01.024Z,47.78
2022-08-06T15:43:28.579Z,47.91
2022-08-06T15:46:12.375Z,47.81
2022-08-06T15:48:46.813Z,48.21
2022-08-06T15:51:30.101Z,48.06
2022-08-06T15:54:00.712Z,48.75
2022-08-06T15:56:38.377Z,48.92
2022-08-06T15:59:20.688Z,49.69
2022-08-06T16:02:01.782Z,50.46
2022-08-06T16:04:36.202Z,50.42
2022-08-06T16:07:07.273Z,50.85
2022-08-06T16:10:00.687Z,51.02
2022-08-06T16:12:24.364Z,50.82
2022-08-06T16:14:54.515Z,50.95
2022-08-06T16:17:52.734Z,51.57
2022-08-06T16:20:20.984Z,51.49
2022-08-06T16:22:53.761Z,52.12
2022-08-06T16:25:23.646Z,51.95
2022-08-06T16:27:52.021Z,52.50
2022-08-06T16:30:20.812Z,54.22
2022-08-06T16:32:49.251Z,54.07
2022-08-06T16:35:21.211Z,54.82
2022-08-06T16:37:51.506Z,54.40
2022-08-06T16:40:20.366Z,54.36
2022-08-06T16:42:49.307Z,54.46
2022-08-06T16:45:19.340Z,54.66
2022-08-06T16:48:21.687Z,54.55
2022-08-06T16:50:40.797Z,53.27
2022-08-06T16:54:11.743Z,54.11
2022-08-06T16:55:56.457Z,55.07
2022-08-06T16:58:35.319Z,55.16
2022-08-06T17:02:19.659Z,55.73
2022-08-06T17:04:00.465Z,55.77
2022-08-06T17:06:31.364Z,55.03
2022-08-06T17:09:17.422Z,54.83
2022-08-06T17:12:00.748Z,54.89
2022-08-06T17:17:17.136Z,54.21
2022-08-06T17:19:44.074Z,54.30
2022-08-06T17:22:27.424Z,53.98
2022-08-06T17:24:57.798Z,54.58
2022-08-06T17:27:43.198Z,55.98
2022-08-06T17:30:16.919Z,56.65
2022-08-06T17:32:48.142Z,56.64
2022-08-06T17:35:16.715Z,56.56
2022-08-06T17:37:50.223Z,58.21
2022-08-06T17:40:31.560Z,58.09
2022-08-06T17:43:12.956Z,57.99
2022-08-06T17:45:52.352Z,57.50
2022-08-06T17:48:30.809Z,57.70
2022-08-06T17:50:58.528Z,57.17
2022-08-06T17:53:52.599Z,56.68
2022-08-06T17:56:13.299Z,57.35
2022-08-06T17:59:16.517Z,57.87
2022-08-06T18:01:49.422Z,57.45
2022-08-06T18:04:30.070Z,58.09
2022-08-06T18:07:01.191Z,59.15
2022-08-06T18:10:11.177Z,58.96
2022-08-06T18:12:26.758Z,58.03
2022-08-06T18:14:55.253Z,57.76
2022-08-06T18:17:59.991Z,59.05
2022-08-06T18:20:11.396Z,59.40
2022-08-06T18:22:38.635Z,60.47
2022-08-06T18:25:15.115Z,60.49
2022-08-06T18:27:53.935Z,60.90
2022-08-06T18:30:46.776Z,61.17
2022-08-06T18:33:12.702Z,61.46
2022-08-06T18:35:45.901Z,62.00
2022-08-06T18:38:24.425Z,63.33
2022-08-06T18:41:00.940Z,63.75
2022-08-06T18:43:53.837Z,64.41
2022-08-06T18:46:55.752Z,64.55
2022-08-06T18:49:09.327Z,65.40
2022-08-06T18:51:41.968Z,65.63
2022-08-06T18:54:14.097Z,65.99
2022-08-06T18:56:42.656Z,65.26
2022-08-06T18:59:23.655Z,65.60
2022-08-06T19:01:57.558Z,65.80
2022-08-06T19:04:28.467Z,65.93
2022-08-06T19:07:00.151Z,67.15
2022-08-06T19:09:33.556Z,67.83
2022-08-06T19:12:12.824Z,67.92
2022-08-06T19:14:48.718Z,68.33
2022-08-06T19:17:47.929Z,68.47
2022-08-06T19:20:20.296Z,68.57
2022-08-06T19:22:53.123Z,68.49
2022-08-06T19:25:22.713Z,68.77
2022-08-06T19:28:31.332Z,68.64
2022-08-06T19:30:45.811Z,69.00
2022-08-06T19:33:16.256Z,69.26
2022-08-06T19:36:02.891Z,69.58
2022-08-06T19:38:32.520Z,70.10
2022-08-06T19:41:00.849Z,69.85
2022-08-06T19:44:26.098Z,69.66
2022-08-06T19:46:31.218Z,69.82
2022-08-06T19:49:04.430Z,70.43
2022-08-06T19:52:04.478Z,71.04
2022-08-06T19:54:27.979Z,71.53
2022-08-06T19:57:08.612Z,71.59
2022-08-06T20:00:53.135Z,71.51
2022-08-06T20:02:26.297Z,71.65
2022-08-06T20:04:56.523Z,71.52
2022-08-06T20:07:27.157Z,71.84
2022-08-06T20:10:01.258Z,71.62
2022-08-06T20:12:33.908Z,72.11
2022-08-06T20:15:14.763Z,72.08
2022-08-06T20:17:46.166Z,72.31
2022-08-06T20:20:29.127Z,72.66
2022-08-06T20:23:08.503Z,72.13
2022-08-06T20:26:10.517Z,72.42
2022-08-06T20:29:09.593Z,72.39
2022-08-06T20:31:21.004Z,72.73
2022-08-06T20:33:58.097Z,72.31
2022-08-06T20:36:29.197Z,72.46
2022-08-06T20:38:57.259Z,72.58
2022-08-06T20:41:57.006Z,72.61
2022-08-06T20:44:11.740Z,72.09
2022-08-06T20:47:00.862Z,71.42
2022-08-06T20:49:47.791Z,71.31
2022-08-06T20:52:17.907Z,71.11
2022-08-06T20:54:51.462Z,71.17
2022-08-06T20:57:27.560Z,71.33
2022-08-06T20:59:59.730Z,70.90
2022-08-06T21:02:32.131Z,71.28
2022-08-06T21:05:14.386Z,71.12
2022-08-06T21:07:57.806Z,71.58
2022-08-06T21:10:31.005Z,71.91
2022-08-06T21:13:08.328Z,72.28
2022-08-06T21:15:56.250Z,73.05
2022-08-06T21:18:26.208Z,73.27
2022-08-06T21:20:56.060Z,73.47
2022-08-06T21:23:42.099Z,73.62
2022-08-06T21:26:16.291Z,73.92
2022-08-06T21:28:52.512Z,74.12
2022-08-06T21:31:24.300Z,74.14
2022-08-06T21:33:54.436Z,74.50
2022-08-06T21:36:25.926Z,74.69
2022-08-06T21:38:55.461Z,74.67
2022-08-06T21:41:30.068Z,75.17
2022-08-06T21:44:17.765Z,75.69
2022-08-06T21:46:49.983Z,75.37
2022-08-06T21:49:57.910Z,75.42
2022-08-06T21:52:05.189Z,75.79
2022-08-06T21:54:33.757Z,75.83
2022-08-06T21:57:02.220Z,76.25
2022-08-06T21:59:46.156Z,77.09
2022-08-06T22:02:26.202Z,77.16
2022-08-06T22:04:59.583Z,77.37
2022-08-06T22:08:07.078Z,77.29
2022-08-06T22:10:19.367Z,77.56
2022-08-06T22:13:15.708Z,77.40
2022-08-06T22:15:46.811Z,77.61
2022-08-06T22:18:28.218Z,78.03
2022-08-06T22:20:59.426Z,77.65
2022-08-06T22:23:30.212Z,77.87
2022-08-06T22:26:00.663Z,78.19
2022-08-06T22:28:34.270Z,78.27
2022-08-06T22:31:08.608Z,78.48
2022-08-06T22:33:58.581Z,78.08
2022-08-06T22:36:34.323Z,78.32
2022-08-06T22:39:07.349Z,78.05
2022-08-06T22:41:42.843Z,77.82
2022-08-06T22:44:31.131Z,77.64
2022-08-06T22:47:04.944Z,77.32
2022-08-06T22:49:36.624Z,77.47
2022-08-06T22:52:05.666Z,78.03
2022-08-06T22:54:58.347Z,78.30
2022-08-06T22:57:24.365Z,78.76
2022-08-06T23:00:11.582Z,78.44
2022-08-06T23:02:39.208Z,78.38
2022-08-06T23:05:13.939Z,78.69
2022-08-06T23:07:43.403Z,77.99
2022-08-06T23:10:20.935Z,78.20
2022-08-06T23:12:48.185Z,78.05
2022-08-06T23:15:30.478Z,77.50
2022-08-06T23:18:08.233Z,77.75
2022-08-06T23:20:42.417Z,77.39
2022-08-06T23:23:09.609Z,77.19
2022-08-06T23:26:00.427Z,77.53
2022-08-06T23:28:28.383Z,77.23
2022-08-06T23:30:56.333Z,77.03
2022-08-06T23:33:23.193Z,77.11
2022-08-06T23:35:50.863Z,76.81
2022-08-06T23:38:32.147Z,76.83
2022-08-06T23:41:15.916Z,76.73
2022-08-06T23:43:49.620Z,76.79
2022-08-06T23:46:17.190Z,76.63
2022-08-06T23:48:51.503Z,76.96
2022-08-06T23:52:01.174Z,77.15
2022-08-06T23:54:15.987Z,76.98
2022-08-06T23:56:53.956Z,76.93
2022-08-06T23:59:44.002Z,76.69
